createdAt,value
2023-01-30T00:01:29.932Z,99477.84
2023-01-30T00:05:31.365Z,99474.47
2023-01-30T00:09:32.811Z,99476.84
2023-01-30T00:13:36.332Z,99461.38
2023-01-30T00:17:37.779Z,99460.91
2023-01-30T00:21:39.232Z,99453.34
2023-01-30T00:25:40.912Z,99441.59
2023-01-30T00:29:49.304Z,99420.47
2023-01-30T00:33:55.778Z,99432.88
2023-01-30T00:37:58.202Z,99418.44
2023-01-30T00:41:59.645Z,99390.41
2023-01-30T00:46:04.710Z,99387.22
2023-01-30T00:50:06.796Z,99375.44
2023-01-30T00:54:08.594Z,99386.88
2023-01-30T00:58:10.084Z,99389.25
2023-01-30T01:02:13.068Z,99400.63
2023-01-30T01:06:14.529Z,99402.31
2023-01-30T01:10:16.757Z,99390.56
2023-01-30T01:14:18.261Z,99389.22
2023-01-30T01:18:21.310Z,99373.59
2023-01-30T01:22:22.772Z,99357.31
2023-01-30T01:26:24.497Z,99331.81
2023-01-30T01:30:25.985Z,99304.63
2023-01-30T01:34:28.774Z,99301.75
2023-01-30T01:38:30.371Z,99301.25
2023-01-30T01:42:36.082Z,99280.41
2023-01-30T01:46:41.457Z,99283.75
2023-01-30T01:50:48.347Z,99255.22
2023-01-30T01:54:54.549Z,99244.81
2023-01-30T01:58:59.169Z,99229.19
2023-01-30T02:03:04.813Z,99204.84
2023-01-30T02:07:08.925Z,99180.34
2023-01-30T02:11:15.295Z,99191.78
2023-01-30T02:15:17.914Z,99196.47
2023-01-30T02:19:41.047Z,99188.47
2023-01-30T02:24:10.235Z,99170.09
2023-01-30T02:28:37.791Z,99159.00
2023-01-30T02:32:50.412Z,99155.66
2023-01-30T02:37:01.108Z,99172.88
2023-01-30T02:41:16.903Z,99188.13
2023-01-30T02:45:26.483Z,99168.53
2023-01-30T02:49:32.221Z,99149.13
2023-01-30T02:53:34.295Z,99132.00
2023-01-30T02:57:35.738Z,99136.00
2023-01-30T03:02:02.480Z,99120.56
2023-01-30T03:06:41.541Z,99109.22
2023-01-30T03:10:51.178Z,99105.91
2023-01-30T03:14:59.130Z,99096.53
2023-01-30T03:19:01.282Z,99086.16
2023-01-30T03:23:04.280Z,99054.28
2023-01-30T03:27:09.572Z,99045.44
2023-01-30T03:31:11.107Z,99031.88
2023-01-30T03:35:12.783Z,99016.13
2023-01-30T03:39:15.765Z,99013.63
2023-01-30T03:43:17.193Z,99008.69
2023-01-30T03:47:18.667Z,98993.84
2023-01-30T03:51:20.089Z,98996.53
2023-01-30T03:55:22.907Z,99017.00
2023-01-30T03:59:24.425Z,99028.28
2023-01-30T04:03:25.932Z,99018.81
2023-01-30T04:07:28.970Z,98994.81
2023-01-30T04:11:31.863Z,98983.03
2023-01-30T04:15:33.666Z,98978.81
2023-01-30T04:19:35.219Z,98960.97
2023-01-30T04:23:36.839Z,98954.44
2023-01-30T04:27:39.635Z,98950.97
2023-01-30T04:31:41.123Z,98950.31
2023-01-30T04:35:51.646Z,98947.09
2023-01-30T04:39:53.194Z,98937.94
2023-01-30T04:43:56.032Z,98918.69
2023-01-30T04:47:57.463Z,98910.25
2023-01-30T04:51:58.976Z,98908.28
2023-01-30T04:56:00.499Z,98923.84
2023-01-30T05:00:03.924Z,98905.81
2023-01-30T05:04:07.226Z,98898.59
2023-01-30T05:08:09.283Z,98878.09
2023-01-30T05:12:10.724Z,98874.34
2023-01-30T05:16:14.953Z,98861.69
2023-01-30T05:20:16.607Z,98844.31
2023-01-30T05:24:18.074Z,98828.78
2023-01-30T05:28:19.563Z,98835.00
2023-01-30T05:32:22.420Z,98824.66
2023-01-30T05:36:24.424Z,98843.53
2023-01-30T05:40:25.848Z,98823.38
2023-01-30T05:44:27.293Z,98820.84
2023-01-30T05:48:30.494Z,98800.97
2023-01-30T05:52:31.948Z,98818.00
2023-01-30T05:56:33.744Z,98787.28
2023-01-30T06:00:35.227Z,98787.13
2023-01-30T06:04:38.025Z,98788.16
2023-01-30T06:08:39.885Z,98789.81
2023-01-30T06:12:41.966Z,98788.22
2023-01-30T06:16:43.438Z,98782.00
2023-01-30T06:20:48.992Z,98776.19
2023-01-30T06:24:50.483Z,98766.66
2023-01-30T06:28:51.899Z,98765.00
2023-01-30T06:32:53.336Z,98767.50
2023-01-30T06:36:56.126Z,98773.69
2023-01-30T06:40:57.575Z,98769.16
2023-01-30T06:44:59.040Z,98768.09
2023-01-30T06:49:00.503Z,98779.88
2023-01-30T06:53:04.755Z,98782.78
2023-01-30T06:57:06.387Z,98777.81
2023-01-30T07:01:07.939Z,98791.03
2023-01-30T07:05:10.100Z,98790.97
2023-01-30T07:09:12.911Z,98772.94
2023-01-30T07:13:14.358Z,98765.53
2023-01-30T07:17:15.901Z,98755.81
2023-01-30T07:21:17.330Z,98752.13
2023-01-30T07:25:20.997Z,98756.69
2023-01-30T07:29:22.677Z,98737.66
2023-01-30T07:33:24.226Z,98761.28
2023-01-30T07:37:25.667Z,98749.06
2023-01-30T07:41:28.502Z,98748.22
2023-01-30T07:45:35.424Z,98758.00
2023-01-30T07:49:37.184Z,98729.97
2023-01-30T07:53:38.743Z,98733.50
2023-01-30T07:57:41.528Z,98748.63
2023-01-30T08:01:43.084Z,98756.53
2023-01-30T08:05:46.295Z,98726.84
2023-01-30T08:09:47.750Z,98753.84
2023-01-30T08:13:50.633Z,98748.84
2023-01-30T08:17:56.181Z,98742.22
2023-01-30T08:21:59.068Z,98738.41
2023-01-30T08:26:03.195Z,98748.38
2023-01-30T08:30:07.489Z,98743.41
2023-01-30T08:34:08.939Z,98740.72
2023-01-30T08:38:10.450Z,98744.66
2023-01-30T08:42:11.930Z,98741.13
2023-01-30T08:46:14.753Z,98748.81
2023-01-30T08:50:16.642Z,98733.50
2023-01-30T08:54:18.398Z,98731.41
2023-01-30T08:58:20.514Z,98710.66
2023-01-30T09:02:23.370Z,98728.91
2023-01-30T09:06:26.300Z,98717.72
2023-01-30T09:10:27.968Z,98736.81
2023-01-30T09:14:29.576Z,98734.09
2023-01-30T09:18:32.515Z,98729.31
2023-01-30T09:22:34.064Z,98737.84
2023-01-30T09:26:35.545Z,98742.22
2023-01-30T09:30:37.092Z,98735.16
2023-01-30T09:34:39.981Z,98726.00
2023-01-30T09:38:41.456Z,98743.47
2023-01-30T09:43:02.935Z,98717.91
2023-01-30T09:47:10.743Z,98717.22
2023-01-30T09:51:35.395Z,98714.97
2023-01-30T09:55:40.256Z,98711.41
2023-01-30T09:59:53.415Z,98703.44
2023-01-30T10:04:03.053Z,98708.72
2023-01-30T10:08:18.030Z,98683.50
2023-01-30T10:12:36.018Z,98660.34
2023-01-30T10:16:45.120Z,98662.88
2023-01-30T10:20:55.968Z,98650.38
2023-01-30T10:25:12.157Z,98673.19
2023-01-30T10:29:18.063Z,98662.34
2023-01-30T10:33:26.201Z,98693.22
2023-01-30T10:37:32.330Z,98676.16
2023-01-30T10:41:38.040Z,98710.34
2023-01-30T10:45:49.100Z,98694.91
2023-01-30T10:49:53.159Z,98676.69
2023-01-30T10:54:00.640Z,98700.88
2023-01-30T10:58:12.225Z,98681.03
2023-01-30T11:02:24.164Z,98684.56
2023-01-30T11:06:26.349Z,98682.09
2023-01-30T11:10:28.067Z,98669.41
2023-01-30T11:14:50.152Z,98701.78
2023-01-30T11:19:19.745Z,98688.88
2023-01-30T11:23:25.310Z,98689.38
2023-01-30T11:27:29.193Z,98660.69
2023-01-30T11:31:41.447Z,98678.56
2023-01-30T11:35:52.094Z,98669.59
2023-01-30T11:39:53.627Z,98663.34
2023-01-30T11:44:01.027Z,98662.09
2023-01-30T11:48:07.853Z,98651.50
2023-01-30T11:52:13.106Z,98651.97
2023-01-30T11:56:19.968Z,98652.16
2023-01-30T12:00:23.993Z,98643.19
2023-01-30T12:04:28.533Z,98633.16
2023-01-30T12:08:43.590Z,98629.41
2023-01-30T12:12:49.203Z,98627.53
2023-01-30T12:16:57.760Z,98629.13
2023-01-30T12:21:02.403Z,98602.50
2023-01-30T12:25:13.639Z,98588.06
2023-01-30T12:29:24.304Z,98591.69
2023-01-30T12:33:29.888Z,98580.13
2023-01-30T12:37:46.050Z,98587.34
2023-01-30T12:42:22.848Z,98580.34
2023-01-30T12:46:40.101Z,98587.88
2023-01-30T12:50:55.351Z,98578.84
2023-01-30T12:55:04.687Z,98584.16
2023-01-30T12:59:11.861Z,98585.00
2023-01-30T13:03:23.313Z,98580.78
2023-01-30T13:07:33.068Z,98572.66
2023-01-30T13:11:48.012Z,98585.75
2023-01-30T13:15:58.581Z,98582.34
2023-01-30T13:20:05.974Z,98583.63
2023-01-30T13:24:17.079Z,98573.56
2023-01-30T13:28:25.896Z,98576.50
2023-01-30T13:32:35.932Z,98582.75
2023-01-30T13:36:43.399Z,98580.25
2023-01-30T13:40:48.573Z,98573.25
2023-01-30T13:44:53.201Z,98579.69
2023-01-30T13:49:09.013Z,98564.41
2023-01-30T13:53:19.668Z,98559.06
2023-01-30T13:57:29.683Z,98569.94
2023-01-30T14:02:04.540Z,98587.53
2023-01-30T14:06:11.679Z,98579.50
2023-01-30T14:10:15.823Z,98579.78
2023-01-30T14:14:26.300Z,98574.59
2023-01-30T14:18:31.142Z,98574.72
2023-01-30T14:22:39.525Z,98577.44
2023-01-30T14:27:05.155Z,98572.34
2023-01-30T14:31:07.748Z,98598.78
2023-01-30T14:35:26.590Z,98596.47
2023-01-30T14:39:39.836Z,98600.66
2023-01-30T14:43:53.241Z,98578.19
2023-01-30T14:48:26.285Z,98581.97
2023-01-30T14:52:38.216Z,98581.50
2023-01-30T14:56:45.010Z,98584.72
2023-01-30T15:00:46.572Z,98590.13
2023-01-30T15:04:54.201Z,98584.53
2023-01-30T15:08:56.805Z,98589.94
2023-01-30T15:13:38.205Z,98594.63
2023-01-30T15:18:07.238Z,98611.69
2023-01-30T15:22:20.254Z,98613.00
2023-01-30T15:26:34.250Z,98628.84
2023-01-30T15:31:04.173Z,98618.41
2023-01-30T15:35:21.835Z,98636.28
2023-01-30T15:39:24.735Z,98655.38
2023-01-30T15:43:53.382Z,98673.34
2023-01-30T15:48:20.503Z,98675.88
2023-01-30T15:52:25.629Z,98699.44
2023-01-30T15:56:31.139Z,98693.63
2023-01-30T16:00:37.140Z,98702.34
2023-01-30T16:04:40.035Z,98698.63
2023-01-30T16:08:41.603Z,98708.16
2023-01-30T16:12:43.475Z,98704.84
2023-01-30T16:16:49.687Z,98706.06
2023-01-30T16:21:01.975Z,98705.66
2023-01-30T16:25:05.613Z,98699.84
2023-01-30T16:29:14.077Z,98721.41
2023-01-30T16:33:16.624Z,98720.56
2023-01-30T16:37:27.284Z,98718.06
2023-01-30T16:41:31.026Z,98714.13
2023-01-30T16:46:24.122Z,98716.75
2023-01-30T16:50:25.766Z,98720.47
2023-01-30T16:54:30.824Z,98720.03
2023-01-30T16:58:34.960Z,98737.47
2023-01-30T17:02:39.975Z,98750.34
2023-01-30T17:06:42.822Z,98767.00
2023-01-30T17:10:53.465Z,98757.41
2023-01-30T17:15:25.903Z,98761.19
2023-01-30T17:19:27.677Z,98776.19
2023-01-30T17:23:29.233Z,98773.69
2023-01-30T17:27:32.572Z,98762.66
2023-01-30T17:31:34.190Z,98762.81
2023-01-30T17:35:37.262Z,98763.84
2023-01-30T17:39:38.793Z,98778.66
2023-01-30T17:43:41.639Z,98789.03
2023-01-30T17:47:43.116Z,98778.28
2023-01-30T17:51:45.101Z,98791.81
2023-01-30T17:55:46.626Z,98815.28
2023-01-30T17:59:49.435Z,98803.66
2023-01-30T18:03:50.962Z,98813.59
2023-01-30T18:07:52.406Z,98828.34
2023-01-30T18:11:53.884Z,98855.53
2023-01-30T18:15:58.770Z,98877.59
2023-01-30T18:20:00.199Z,98848.44
2023-01-30T18:24:01.989Z,98857.63
2023-01-30T18:28:03.800Z,98857.63
2023-01-30T18:32:06.827Z,98868.44
2023-01-30T18:36:10.140Z,98887.53
2023-01-30T18:40:12.532Z,98892.53
2023-01-30T18:44:14.082Z,98906.25
2023-01-30T18:48:16.865Z,98910.81
2023-01-30T18:52:18.357Z,98913.94
2023-01-30T18:56:22.935Z,98915.00
2023-01-30T19:00:24.531Z,98936.22
2023-01-30T19:04:27.378Z,98931.59
2023-01-30T19:08:28.829Z,98942.66
2023-01-30T19:12:30.265Z,98954.91
2023-01-30T19:16:33.430Z,98958.22
2023-01-30T19:20:36.227Z,98984.44
2023-01-30T19:24:37.779Z,98979.84
2023-01-30T19:28:39.257Z,98985.28
2023-01-30T19:32:40.745Z,98991.50
2023-01-30T19:36:43.530Z,98998.19
2023-01-30T19:40:46.588Z,99008.19
2023-01-30T19:44:48.062Z,99018.13
2023-01-30T19:48:49.976Z,99013.53
2023-01-30T19:52:53.475Z,99032.09
2023-01-30T19:56:54.911Z,99042.03
2023-01-30T20:01:06.200Z,99055.16
2023-01-30T20:05:09.025Z,99066.81
2023-01-30T20:09:12.230Z,99068.94
2023-01-30T20:13:13.729Z,99058.94
2023-01-30T20:17:15.182Z,99057.28
2023-01-30T20:21:18.708Z,99060.19
2023-01-30T20:25:21.581Z,99073.31
2023-01-30T20:29:23.139Z,99069.75
2023-01-30T20:33:24.995Z,99101.00
2023-01-30T20:37:26.702Z,99099.75
2023-01-30T20:41:30.138Z,99090.16
2023-01-30T20:45:31.654Z,99099.75
2023-01-30T20:49:33.081Z,99109.34
2023-01-30T20:53:35.580Z,99110.81
2023-01-30T20:57:41.541Z,99133.06
2023-01-30T21:01:43.508Z,99143.28
2023-01-30T21:05:45.013Z,99164.72
2023-01-30T21:09:46.444Z,99173.25
2023-01-30T21:13:49.336Z,99138.69
2023-01-30T21:17:51.627Z,99144.31
2023-01-30T21:21:54.338Z,99160.56
2023-01-30T21:25:56.432Z,99165.97
2023-01-30T21:29:59.224Z,99171.38
2023-01-30T21:34:00.735Z,99160.75
2023-01-30T21:38:02.171Z,99173.06
2023-01-30T21:42:03.809Z,99186.94
2023-01-30T21:46:07.061Z,99205.78
2023-01-30T21:50:09.860Z,99206.13
2023-01-30T21:54:11.664Z,99221.53
2023-01-30T21:58:13.180Z,99220.03
2023-01-30T22:02:15.994Z,99218.63
2023-01-30T22:06:17.449Z,99226.94
2023-01-30T22:10:18.979Z,99229.47
2023-01-30T22:14:20.426Z,99231.75
2023-01-30T22:18:23.334Z,99226.13
2023-01-30T22:22:25.263Z,99230.72
2023-01-30T22:26:26.928Z,99254.88
2023-01-30T22:30:28.472Z,99262.38
2023-01-30T22:34:31.256Z,99264.81
2023-01-30T22:38:33.787Z,99271.06
2023-01-30T22:42:35.248Z,99285.59
2023-01-30T22:46:38.934Z,99289.94
2023-01-30T22:50:42.359Z,99290.16
2023-01-30T22:54:43.801Z,99304.25
2023-01-30T22:58:46.165Z,99299.19
2023-01-30T23:02:47.717Z,99300.31
2023-01-30T23:06:51.538Z,99313.03
2023-01-30T23:10:53.220Z,99298.47
2023-01-30T23:14:54.675Z,99300.78
2023-01-30T23:18:56.137Z,99307.22
2023-01-30T23:22:58.912Z,99298.72
2023-01-30T23:27:00.347Z,99296.88
2023-01-30T23:31:06.964Z,99312.41
2023-01-30T23:35:08.507Z,99324.56
2023-01-30T23:39:12.766Z,99303.63
2023-01-30T23:43:14.696Z,99302.09
2023-01-30T23:47:16.177Z,99300.97
2023-01-30T23:51:19.531Z,99311.09
2023-01-30T23:55:22.366Z,99303.63
2023-01-30T23:59:23.817Z,99296.56
